sensor_id;sensor_type;location;lat;lon;timestamp;P1;durP1;ratioP1;P2;durP2;ratioP2
37851;SDS011;23691;52.486;4.650;2024-01-25T00:01:45;46.17;;;7.20;;
37851;SDS011;23691;52.486;4.650;2024-01-25T00:04:10;48.08;;;7.30;;
37851;SDS011;23691;52.486;4.650;2024-01-25T00:06:36;42.03;;;7.43;;
37851;SDS011;23691;52.486;4.650;2024-01-25T00:09:01;38.80;;;6.50;;
37851;SDS011;23691;52.486;4.650;2024-01-25T00:11:27;43.40;;;6.35;;
37851;SDS011;23691;52.486;4.650;2024-01-25T00:13:56;42.85;;;6.57;;
37851;SDS011;23691;52.486;4.650;2024-01-25T00:16:22;46.05;;;7.18;;
37851;SDS011;23691;52.486;4.650;2024-01-25T00:18:47;40.08;;;7.18;;
37851;SDS011;23691;52.486;4.650;2024-01-25T00:21:13;40.80;;;6.72;;
37851;SDS011;23691;52.486;4.650;2024-01-25T00:23:38;44.10;;;6.70;;
37851;SDS011;23691;52.486;4.650;2024-01-25T00:26:04;48.10;;;7.57;;
37851;SDS011;23691;52.486;4.650;2024-01-25T00:28:29;53.75;;;7.82;;
37851;SDS011;23691;52.486;4.650;2024-01-25T00:30:54;55.63;;;7.65;;
37851;SDS011;23691;52.486;4.650;2024-01-25T00:33:20;44.78;;;7.07;;
37851;SDS011;23691;52.486;4.650;2024-01-25T00:35:45;48.00;;;6.95;;
37851;SDS011;23691;52.486;4.650;2024-01-25T00:38:14;38.65;;;7.03;;
37851;SDS011;23691;52.486;4.650;2024-01-25T00:40:39;55.35;;;6.95;;
37851;SDS011;23691;52.486;4.650;2024-01-25T00:43:17;46.17;;;7.07;;
37851;SDS011;23691;52.486;4.650;2024-01-25T00:45:43;46.00;;;6.93;;
37851;SDS011;23691;52.486;4.650;2024-01-25T00:48:09;53.33;;;7.45;;
37851;SDS011;23691;52.486;4.650;2024-01-25T00:50:35;39.67;;;6.65;;
37851;SDS011;23691;52.486;4.650;2024-01-25T00:53:01;49.55;;;6.90;;
37851;SDS011;23691;52.486;4.650;2024-01-25T00:55:26;45.70;;;7.63;;
37851;SDS011;23691;52.486;4.650;2024-01-25T00:57:56;47.10;;;7.38;;
37851;SDS011;23691;52.486;4.650;2024-01-25T01:00:21;48.75;;;7.22;;
37851;SDS011;23691;52.486;4.650;2024-01-25T01:02:48;46.33;;;7.05;;
37851;SDS011;23691;52.486;4.650;2024-01-25T01:05:15;39.00;;;6.55;;
37851;SDS011;23691;52.486;4.650;2024-01-25T01:07:41;49.25;;;6.82;;
37851;SDS011;23691;52.486;4.650;2024-01-25T01:10:07;41.40;;;8.23;;
37851;SDS011;23691;52.486;4.650;2024-01-25T01:12:33;44.03;;;7.13;;
37851;SDS011;23691;52.486;4.650;2024-01-25T01:14:59;50.92;;;7.85;;
37851;SDS011;23691;52.486;4.650;2024-01-25T01:17:25;43.20;;;7.10;;
37851;SDS011;23691;52.486;4.650;2024-01-25T01:19:50;48.38;;;7.72;;
37851;SDS011;23691;52.486;4.650;2024-01-25T01:22:15;52.15;;;8.10;;
37851;SDS011;23691;52.486;4.650;2024-01-25T01:24:41;39.42;;;7.28;;
37851;SDS011;23691;52.486;4.650;2024-01-25T01:27:06;48.00;;;7.28;;
37851;SDS011;23691;52.486;4.650;2024-01-25T01:29:32;50.35;;;7.30;;
37851;SDS011;23691;52.486;4.650;2024-01-25T01:31:57;49.20;;;7.78;;
37851;SDS011;23691;52.486;4.650;2024-01-25T01:34:24;46.87;;;6.47;;
37851;SDS011;23691;52.486;4.650;2024-01-25T01:36:51;42.58;;;6.93;;
37851;SDS011;23691;52.486;4.650;2024-01-25T01:39:16;42.28;;;6.47;;
37851;SDS011;23691;52.486;4.650;2024-01-25T01:41:42;49.08;;;7.30;;
37851;SDS011;23691;52.486;4.650;2024-01-25T01:44:12;41.75;;;7.20;;
37851;SDS011;23691;52.486;4.650;2024-01-25T01:46:37;54.63;;;7.80;;
37851;SDS011;23691;52.486;4.650;2024-01-25T01:49:05;43.35;;;7.28;;
37851;SDS011;23691;52.486;4.650;2024-01-25T01:51:32;48.70;;;6.82;;
37851;SDS011;23691;52.486;4.650;2024-01-25T01:54:00;41.25;;;6.85;;
37851;SDS011;23691;52.486;4.650;2024-01-25T01:56:28;42.25;;;6.60;;
37851;SDS011;23691;52.486;4.650;2024-01-25T01:59:00;44.58;;;7.10;;
37851;SDS011;23691;52.486;4.650;2024-01-25T02:01:30;45.83;;;6.93;;
37851;SDS011;23691;52.486;4.650;2024-01-25T02:03:56;46.63;;;6.53;;
37851;SDS011;23691;52.486;4.650;2024-01-25T02:06:21;45.67;;;7.65;;
37851;SDS011;23691;52.486;4.650;2024-01-25T02:08:52;50.58;;;7.65;;
37851;SDS011;23691;52.486;4.650;2024-01-25T02:11:29;49.78;;;8.00;;
37851;SDS011;23691;52.486;4.650;2024-01-25T02:13:55;42.95;;;7.20;;
37851;SDS011;23691;52.486;4.650;2024-01-25T02:16:21;47.03;;;7.68;;
37851;SDS011;23691;52.486;4.650;2024-01-25T02:18:46;41.72;;;7.35;;
37851;SDS011;23691;52.486;4.650;2024-01-25T02:21:19;49.33;;;7.50;;
37851;SDS011;23691;52.486;4.650;2024-01-25T02:23:45;49.83;;;7.70;;
37851;SDS011;23691;52.486;4.650;2024-01-25T02:26:10;49.42;;;7.32;;
37851;SDS011;23691;52.486;4.650;2024-01-25T02:28:36;41.63;;;6.95;;
37851;SDS011;23691;52.486;4.650;2024-01-25T02:31:01;41.90;;;6.93;;
37851;SDS011;23691;52.486;4.650;2024-01-25T02:33:27;46.63;;;7.22;;
37851;SDS011;23691;52.486;4.650;2024-01-25T02:35:55;43.28;;;6.70;;
37851;SDS011;23691;52.486;4.650;2024-01-25T02:40:49;39.72;;;6.57;;
37851;SDS011;23691;52.486;4.650;2024-01-25T02:43:15;51.35;;;7.70;;
37851;SDS011;23691;52.486;4.650;2024-01-25T02:45:45;47.35;;;6.65;;
37851;SDS011;23691;52.486;4.650;2024-01-25T02:48:13;43.90;;;6.55;;
37851;SDS011;23691;52.486;4.650;2024-01-25T02:50:38;41.72;;;6.68;;
37851;SDS011;23691;52.486;4.650;2024-01-25T02:53:04;44.33;;;6.82;;
37851;SDS011;23691;52.486;4.650;2024-01-25T02:55:33;49.78;;;6.78;;
37851;SDS011;23691;52.486;4.650;2024-01-25T02:57:58;56.67;;;7.85;;
37851;SDS011;23691;52.486;4.650;2024-01-25T03:00:24;48.83;;;6.90;;
37851;SDS011;23691;52.486;4.650;2024-01-25T03:02:50;43.70;;;6.57;;
37851;SDS011;23691;52.486;4.650;2024-01-25T03:05:16;45.72;;;7.30;;
37851;SDS011;23691;52.486;4.650;2024-01-25T03:07:44;46.30;;;7.18;;
37851;SDS011;23691;52.486;4.650;2024-01-25T03:10:10;42.83;;;6.47;;
37851;SDS011;23691;52.486;4.650;2024-01-25T03:12:36;40.42;;;6.85;;
37851;SDS011;23691;52.486;4.650;2024-01-25T03:15:03;49.63;;;6.97;;
37851;SDS011;23691;52.486;4.650;2024-01-25T03:17:31;45.58;;;7.10;;
37851;SDS011;23691;52.486;4.650;2024-01-25T03:19:57;44.67;;;6.78;;
37851;SDS011;23691;52.486;4.650;2024-01-25T03:22:22;44.33;;;6.22;;
37851;SDS011;23691;52.486;4.650;2024-01-25T03:24:48;41.25;;;6.75;;
37851;SDS011;23691;52.486;4.650;2024-01-25T03:27:13;43.22;;;6.53;;
37851;SDS011;23691;52.486;4.650;2024-01-25T03:29:43;46.00;;;7.80;;
37851;SDS011;23691;52.486;4.650;2024-01-25T03:32:09;43.92;;;6.95;;
37851;SDS011;23691;52.486;4.650;2024-01-25T03:34:35;43.10;;;7.05;;
37851;SDS011;23691;52.486;4.650;2024-01-25T03:37:00;41.75;;;6.85;;
37851;SDS011;23691;52.486;4.650;2024-01-25T03:39:26;39.22;;;6.60;;
37851;SDS011;23691;52.486;4.650;2024-01-25T03:41:51;44.97;;;7.25;;
37851;SDS011;23691;52.486;4.650;2024-01-25T03:44:16;40.92;;;6.75;;
37851;SDS011;23691;52.486;4.650;2024-01-25T03:46:42;35.92;;;6.00;;
37851;SDS011;23691;52.486;4.650;2024-01-25T03:49:07;45.30;;;7.32;;
37851;SDS011;23691;52.486;4.650;2024-01-25T03:51:33;39.03;;;6.50;;
37851;SDS011;23691;52.486;4.650;2024-01-25T03:53:58;35.88;;;5.88;;
37851;SDS011;23691;52.486;4.650;2024-01-25T03:56:24;45.22;;;6.82;;
37851;SDS011;23691;52.486;4.650;2024-01-25T03:58:49;50.78;;;6.88;;
37851;SDS011;23691;52.486;4.650;2024-01-25T04:01:15;44.65;;;6.88;;
37851;SDS011;23691;52.486;4.650;2024-01-25T04:03:40;41.25;;;6.65;;
37851;SDS011;23691;52.486;4.650;2024-01-25T04:06:06;40.88;;;7.28;;
37851;SDS011;23691;52.486;4.650;2024-01-25T04:08:31;48.15;;;6.90;;
37851;SDS011;23691;52.486;4.650;2024-01-25T04:10:57;49.83;;;7.05;;
37851;SDS011;23691;52.486;4.650;2024-01-25T04:13:22;40.95;;;6.68;;
37851;SDS011;23691;52.486;4.650;2024-01-25T04:15:47;41.53;;;6.25;;
37851;SDS011;23691;52.486;4.650;2024-01-25T04:18:13;49.60;;;6.45;;
37851;SDS011;23691;52.486;4.650;2024-01-25T04:20:39;39.40;;;6.18;;
37851;SDS011;23691;52.486;4.650;2024-01-25T04:23:05;45.58;;;7.53;;
37851;SDS011;23691;52.486;4.650;2024-01-25T04:25:30;47.92;;;6.78;;
37851;SDS011;23691;52.486;4.650;2024-01-25T04:27:55;40.60;;;6.95;;
37851;SDS011;23691;52.486;4.650;2024-01-25T04:30:21;48.03;;;8.13;;
37851;SDS011;23691;52.486;4.650;2024-01-25T04:32:46;45.58;;;7.05;;
37851;SDS011;23691;52.486;4.650;2024-01-25T04:35:12;49.53;;;6.78;;
37851;SDS011;23691;52.486;4.650;2024-01-25T04:37:37;43.38;;;6.93;;
37851;SDS011;23691;52.486;4.650;2024-01-25T04:40:03;45.67;;;7.45;;
37851;SDS011;23691;52.486;4.650;2024-01-25T04:42:30;40.58;;;6.43;;
37851;SDS011;23691;52.486;4.650;2024-01-25T04:44:55;59.45;;;7.60;;
37851;SDS011;23691;52.486;4.650;2024-01-25T04:47:21;45.80;;;7.68;;
37851;SDS011;23691;52.486;4.650;2024-01-25T04:49:47;44.35;;;7.18;;
37851;SDS011;23691;52.486;4.650;2024-01-25T04:52:12;49.33;;;6.63;;
37851;SDS011;23691;52.486;4.650;2024-01-25T04:54:38;45.33;;;7.07;;
37851;SDS011;23691;52.486;4.650;2024-01-25T04:57:03;42.33;;;7.85;;
37851;SDS011;23691;52.486;4.650;2024-01-25T04:59:31;41.08;;;6.40;;
37851;SDS011;23691;52.486;4.650;2024-01-25T05:04:25;45.72;;;7.10;;
37851;SDS011;23691;52.486;4.650;2024-01-25T05:06:51;48.83;;;7.28;;
37851;SDS011;23691;52.486;4.650;2024-01-25T05:09:16;41.05;;;6.68;;
37851;SDS011;23691;52.486;4.650;2024-01-25T05:11:42;42.63;;;6.53;;
37851;SDS011;23691;52.486;4.650;2024-01-25T05:14:07;39.17;;;7.32;;
37851;SDS011;23691;52.486;4.650;2024-01-25T05:16:32;37.28;;;6.57;;
37851;SDS011;23691;52.486;4.650;2024-01-25T05:18:58;48.13;;;6.88;;
37851;SDS011;23691;52.486;4.650;2024-01-25T05:21:23;36.88;;;6.45;;
37851;SDS011;23691;52.486;4.650;2024-01-25T05:23:49;37.85;;;6.18;;
37851;SDS011;23691;52.486;4.650;2024-01-25T05:26:15;44.20;;;7.43;;
37851;SDS011;23691;52.486;4.650;2024-01-25T05:28:40;42.70;;;6.22;;
37851;SDS011;23691;52.486;4.650;2024-01-25T05:31:06;43.03;;;6.70;;
37851;SDS011;23691;52.486;4.650;2024-01-25T05:33:37;47.63;;;7.32;;
37851;SDS011;23691;52.486;4.650;2024-01-25T05:36:03;37.03;;;6.55;;
37851;SDS011;23691;52.486;4.650;2024-01-25T05:38:28;36.95;;;6.22;;
37851;SDS011;23691;52.486;4.650;2024-01-25T05:40:54;42.10;;;6.93;;
37851;SDS011;23691;52.486;4.650;2024-01-25T05:43:22;40.65;;;6.85;;
37851;SDS011;23691;52.486;4.650;2024-01-25T05:45:47;42.63;;;7.07;;
37851;SDS011;23691;52.486;4.650;2024-01-25T05:48:14;46.90;;;7.10;;
37851;SDS011;23691;52.486;4.650;2024-01-25T05:50:40;40.65;;;6.30;;
37851;SDS011;23691;52.486;4.650;2024-01-25T05:53:07;43.55;;;7.82;;
37851;SDS011;23691;52.486;4.650;2024-01-25T05:55:34;43.92;;;7.00;;
37851;SDS011;23691;52.486;4.650;2024-01-25T05:57:59;41.72;;;7.68;;
37851;SDS011;23691;52.486;4.650;2024-01-25T06:00:25;41.78;;;7.43;;
37851;SDS011;23691;52.486;4.650;2024-01-25T06:02:50;38.20;;;6.60;;
37851;SDS011;23691;52.486;4.650;2024-01-25T06:05:16;42.00;;;6.82;;
37851;SDS011;23691;52.486;4.650;2024-01-25T06:07:41;38.42;;;6.68;;
37851;SDS011;23691;52.486;4.650;2024-01-25T06:10:07;43.95;;;6.93;;
37851;SDS011;23691;52.486;4.650;2024-01-25T06:12:32;44.53;;;7.47;;
37851;SDS011;23691;52.486;4.650;2024-01-25T06:14:58;38.78;;;6.57;;
37851;SDS011;23691;52.486;4.650;2024-01-25T06:17:23;43.10;;;7.18;;
37851;SDS011;23691;52.486;4.650;2024-01-25T06:19:49;43.65;;;6.38;;
37851;SDS011;23691;52.486;4.650;2024-01-25T06:22:14;39.65;;;6.22;;
37851;SDS011;23691;52.486;4.650;2024-01-25T06:24:41;37.40;;;6.10;;
37851;SDS011;23691;52.486;4.650;2024-01-25T06:27:07;45.65;;;6.70;;
37851;SDS011;23691;52.486;4.650;2024-01-25T06:29:33;35.88;;;6.68;;
37851;SDS011;23691;52.486;4.650;2024-01-25T06:31:58;41.38;;;6.40;;
37851;SDS011;23691;52.486;4.650;2024-01-25T06:34:24;41.33;;;6.72;;
37851;SDS011;23691;52.486;4.650;2024-01-25T06:36:49;39.70;;;6.05;;
37851;SDS011;23691;52.486;4.650;2024-01-25T06:39:14;42.33;;;6.35;;
37851;SDS011;23691;52.486;4.650;2024-01-25T06:41:39;41.08;;;6.80;;
37851;SDS011;23691;52.486;4.650;2024-01-25T06:44:05;42.58;;;5.97;;
37851;SDS011;23691;52.486;4.650;2024-01-25T06:46:30;39.25;;;6.25;;
37851;SDS011;23691;52.486;4.650;2024-01-25T06:48:55;37.67;;;6.10;;
37851;SDS011;23691;52.486;4.650;2024-01-25T06:51:21;42.90;;;7.07;;
37851;SDS011;23691;52.486;4.650;2024-01-25T06:53:46;36.55;;;6.18;;
37851;SDS011;23691;52.486;4.650;2024-01-25T06:56:11;46.63;;;6.72;;
37851;SDS011;23691;52.486;4.650;2024-01-25T06:58:37;37.00;;;6.32;;
37851;SDS011;23691;52.486;4.650;2024-01-25T07:01:02;50.72;;;7.20;;
37851;SDS011;23691;52.486;4.650;2024-01-25T07:03:29;34.08;;;5.75;;
37851;SDS011;23691;52.486;4.650;2024-01-25T07:05:55;41.88;;;6.22;;
37851;SDS011;23691;52.486;4.650;2024-01-25T07:08:20;37.03;;;5.53;;
37851;SDS011;23691;52.486;4.650;2024-01-25T07:10:47;33.25;;;6.30;;
37851;SDS011;23691;52.486;4.650;2024-01-25T07:13:12;45.90;;;10.95;;
37851;SDS011;23691;52.486;4.650;2024-01-25T07:15:51;36.95;;;8.85;;
37851;SDS011;23691;52.486;4.650;2024-01-25T07:18:16;42.38;;;9.15;;
37851;SDS011;23691;52.486;4.650;2024-01-25T07:20:42;43.20;;;7.28;;
37851;SDS011;23691;52.486;4.650;2024-01-25T07:23:07;40.80;;;7.53;;
37851;SDS011;23691;52.486;4.650;2024-01-25T07:25:33;42.80;;;7.38;;
37851;SDS011;23691;52.486;4.650;2024-01-25T07:27:58;43.45;;;7.47;;
37851;SDS011;23691;52.486;4.650;2024-01-25T07:30:24;30.52;;;5.97;;
37851;SDS011;23691;52.486;4.650;2024-01-25T07:32:49;33.28;;;6.75;;
37851;SDS011;23691;52.486;4.650;2024-01-25T07:35:15;36.85;;;8.20;;
37851;SDS011;23691;52.486;4.650;2024-01-25T07:37:41;42.55;;;8.13;;
37851;SDS011;23691;52.486;4.650;2024-01-25T07:40:06;35.25;;;7.45;;
37851;SDS011;23691;52.486;4.650;2024-01-25T07:42:33;40.05;;;7.57;;
37851;SDS011;23691;52.486;4.650;2024-01-25T07:44:58;42.28;;;7.38;;
37851;SDS011;23691;52.486;4.650;2024-01-25T07:47:24;42.20;;;7.00;;
37851;SDS011;23691;52.486;4.650;2024-01-25T07:49:49;33.50;;;6.07;;
37851;SDS011;23691;52.486;4.650;2024-01-25T07:52:14;37.35;;;6.72;;
37851;SDS011;23691;52.486;4.650;2024-01-25T07:54:40;40.05;;;6.53;;
37851;SDS011;23691;52.486;4.650;2024-01-25T07:57:05;38.20;;;6.20;;
37851;SDS011;23691;52.486;4.650;2024-01-25T07:59:31;46.50;;;7.20;;
37851;SDS011;23691;52.486;4.650;2024-01-25T08:01:56;47.40;;;6.55;;
37851;SDS011;23691;52.486;4.650;2024-01-25T08:04:21;43.35;;;7.10;;
37851;SDS011;23691;52.486;4.650;2024-01-25T08:06:47;40.40;;;5.78;;
37851;SDS011;23691;52.486;4.650;2024-01-25T08:09:12;35.15;;;5.93;;
37851;SDS011;23691;52.486;4.650;2024-01-25T08:11:37;42.65;;;7.05;;
37851;SDS011;23691;52.486;4.650;2024-01-25T08:14:03;37.95;;;6.22;;
37851;SDS011;23691;52.486;4.650;2024-01-25T08:16:28;52.38;;;8.80;;
37851;SDS011;23691;52.486;4.650;2024-01-25T08:18:54;40.08;;;6.70;;
37851;SDS011;23691;52.486;4.650;2024-01-25T08:21:19;42.50;;;6.65;;
37851;SDS011;23691;52.486;4.650;2024-01-25T08:23:45;41.88;;;7.55;;
37851;SDS011;23691;52.486;4.650;2024-01-25T08:26:10;39.78;;;6.90;;
37851;SDS011;23691;52.486;4.650;2024-01-25T08:28:38;44.65;;;7.20;;
37851;SDS011;23691;52.486;4.650;2024-01-25T08:31:04;42.07;;;6.73;;
37851;SDS011;23691;52.486;4.650;2024-01-25T08:33:30;38.47;;;6.30;;
37851;SDS011;23691;52.486;4.650;2024-01-25T08:35:55;48.28;;;7.20;;
37851;SDS011;23691;52.486;4.650;2024-01-25T08:38:21;42.42;;;7.43;;
37851;SDS011;23691;52.486;4.650;2024-01-25T08:40:46;37.40;;;6.82;;
37851;SDS011;23691;52.486;4.650;2024-01-25T08:43:11;38.08;;;6.65;;
37851;SDS011;23691;52.486;4.650;2024-01-25T08:45:37;41.05;;;6.60;;
37851;SDS011;23691;52.486;4.650;2024-01-25T08:48:03;45.03;;;6.22;;
37851;SDS011;23691;52.486;4.650;2024-01-25T08:50:29;44.05;;;7.38;;
37851;SDS011;23691;52.486;4.650;2024-01-25T08:52:57;40.78;;;6.72;;
37851;SDS011;23691;52.486;4.650;2024-01-25T08:55:23;38.08;;;5.85;;
37851;SDS011;23691;52.486;4.650;2024-01-25T08:57:49;39.28;;;6.47;;
37851;SDS011;23691;52.486;4.650;2024-01-25T09:00:14;45.17;;;5.60;;
37851;SDS011;23691;52.486;4.650;2024-01-25T09:02:40;34.63;;;5.72;;
37851;SDS011;23691;52.486;4.650;2024-01-25T09:05:06;44.97;;;6.40;;
37851;SDS011;23691;52.486;4.650;2024-01-25T09:07:32;42.20;;;6.47;;
37851;SDS011;23691;52.486;4.650;2024-01-25T09:09:58;36.90;;;6.13;;
37851;SDS011;23691;52.486;4.650;2024-01-25T09:14:51;35.00;;;5.72;;
37851;SDS011;23691;52.486;4.650;2024-01-25T09:17:16;40.65;;;5.95;;
37851;SDS011;23691;52.486;4.650;2024-01-25T09:19:47;36.38;;;5.90;;
37851;SDS011;23691;52.486;4.650;2024-01-25T09:22:13;44.85;;;6.47;;
37851;SDS011;23691;52.486;4.650;2024-01-25T09:24:38;46.22;;;6.97;;
37851;SDS011;23691;52.486;4.650;2024-01-25T09:27:05;38.45;;;5.85;;
37851;SDS011;23691;52.486;4.650;2024-01-25T09:29:30;43.10;;;6.47;;
37851;SDS011;23691;52.486;4.650;2024-01-25T09:31:56;45.53;;;7.40;;
37851;SDS011;23691;52.486;4.650;2024-01-25T09:34:21;47.83;;;7.95;;
37851;SDS011;23691;52.486;4.650;2024-01-25T09:36:46;49.05;;;9.02;;
37851;SDS011;23691;52.486;4.650;2024-01-25T09:39:12;41.42;;;8.23;;
37851;SDS011;23691;52.486;4.650;2024-01-25T09:41:39;47.70;;;9.07;;
37851;SDS011;23691;52.486;4.650;2024-01-25T09:44:06;55.05;;;9.52;;
37851;SDS011;23691;52.486;4.650;2024-01-25T09:46:33;53.20;;;9.77;;
37851;SDS011;23691;52.486;4.650;2024-01-25T09:48:59;52.40;;;9.93;;
37851;SDS011;23691;52.486;4.650;2024-01-25T09:51:29;40.65;;;8.68;;
37851;SDS011;23691;52.486;4.650;2024-01-25T09:54:01;43.58;;;8.90;;
37851;SDS011;23691;52.486;4.650;2024-01-25T09:56:28;41.03;;;7.93;;
37851;SDS011;23691;52.486;4.650;2024-01-25T09:58:59;39.30;;;8.35;;
37851;SDS011;23691;52.486;4.650;2024-01-25T10:01:28;46.60;;;7.78;;
37851;SDS011;23691;52.486;4.650;2024-01-25T10:04:28;42.40;;;6.50;;
37851;SDS011;23691;52.486;4.650;2024-01-25T10:06:57;37.60;;;6.80;;
37851;SDS011;23691;52.486;4.650;2024-01-25T10:09:23;38.17;;;6.10;;
37851;SDS011;23691;52.486;4.650;2024-01-25T10:11:49;30.92;;;6.03;;
37851;SDS011;23691;52.486;4.650;2024-01-25T10:14:14;43.60;;;6.72;;
37851;SDS011;23691;52.486;4.650;2024-01-25T10:16:39;39.88;;;6.50;;
37851;SDS011;23691;52.486;4.650;2024-01-25T10:19:08;30.88;;;5.95;;
37851;SDS011;23691;52.486;4.650;2024-01-25T10:21:35;39.17;;;6.30;;
37851;SDS011;23691;52.486;4.650;2024-01-25T10:24:01;48.53;;;7.83;;
37851;SDS011;23691;52.486;4.650;2024-01-25T10:26:27;40.53;;;6.65;;
37851;SDS011;23691;52.486;4.650;2024-01-25T10:28:55;39.42;;;6.47;;
37851;SDS011;23691;52.486;4.650;2024-01-25T10:31:24;39.40;;;7.10;;
37851;SDS011;23691;52.486;4.650;2024-01-25T10:33:52;32.42;;;6.90;;
37851;SDS011;23691;52.486;4.650;2024-01-25T10:36:20;36.88;;;7.07;;
37851;SDS011;23691;52.486;4.650;2024-01-25T10:38:46;46.67;;;7.93;;
37851;SDS011;23691;52.486;4.650;2024-01-25T10:41:13;39.47;;;6.60;;
37851;SDS011;23691;52.486;4.650;2024-01-25T10:43:39;35.13;;;6.57;;
37851;SDS011;23691;52.486;4.650;2024-01-25T10:46:05;36.30;;;6.25;;
37851;SDS011;23691;52.486;4.650;2024-01-25T10:48:31;39.08;;;6.88;;
37851;SDS011;23691;52.486;4.650;2024-01-25T10:50:56;38.22;;;6.43;;
37851;SDS011;23691;52.486;4.650;2024-01-25T10:53:24;34.13;;;6.75;;
37851;SDS011;23691;52.486;4.650;2024-01-25T10:55:52;41.73;;;7.13;;
37851;SDS011;23691;52.486;4.650;2024-01-25T10:58:17;40.47;;;6.55;;
37851;SDS011;23691;52.486;4.650;2024-01-25T11:00:52;39.88;;;6.75;;
37851;SDS011;23691;52.486;4.650;2024-01-25T11:03:20;38.92;;;6.32;;
37851;SDS011;23691;52.486;4.650;2024-01-25T11:05:50;35.83;;;5.90;;
37851;SDS011;23691;52.486;4.650;2024-01-25T11:08:19;37.20;;;6.05;;
37851;SDS011;23691;52.486;4.650;2024-01-25T11:10:48;32.45;;;6.78;;
37851;SDS011;23691;52.486;4.650;2024-01-25T11:13:15;40.20;;;7.25;;
37851;SDS011;23691;52.486;4.650;2024-01-25T11:15:40;38.80;;;6.55;;
37851;SDS011;23691;52.486;4.650;2024-01-25T11:18:07;35.75;;;6.82;;
37851;SDS011;23691;52.486;4.650;2024-01-25T11:20:33;34.30;;;6.38;;
37851;SDS011;23691;52.486;4.650;2024-01-25T11:23:01;38.88;;;7.53;;
37851;SDS011;23691;52.486;4.650;2024-01-25T11:25:29;36.58;;;6.53;;
37851;SDS011;23691;52.486;4.650;2024-01-25T11:27:55;38.88;;;6.80;;
37851;SDS011;23691;52.486;4.650;2024-01-25T11:30:21;33.95;;;7.07;;
37851;SDS011;23691;52.486;4.650;2024-01-25T11:32:47;37.85;;;6.90;;
37851;SDS011;23691;52.486;4.650;2024-01-25T11:35:13;32.03;;;6.15;;
37851;SDS011;23691;52.486;4.650;2024-01-25T11:37:45;33.53;;;6.85;;
37851;SDS011;23691;52.486;4.650;2024-01-25T11:40:12;42.35;;;6.78;;
37851;SDS011;23691;52.486;4.650;2024-01-25T11:42:41;36.08;;;7.20;;
37851;SDS011;23691;52.486;4.650;2024-01-25T11:45:09;37.53;;;6.82;;
37851;SDS011;23691;52.486;4.650;2024-01-25T11:47:40;39.65;;;6.65;;
37851;SDS011;23691;52.486;4.650;2024-01-25T11:50:06;37.97;;;6.30;;
37851;SDS011;23691;52.486;4.650;2024-01-25T11:52:34;34.10;;;6.35;;
37851;SDS011;23691;52.486;4.650;2024-01-25T11:55:04;40.72;;;6.63;;
37851;SDS011;23691;52.486;4.650;2024-01-25T11:57:34;41.15;;;6.70;;
37851;SDS011;23691;52.486;4.650;2024-01-25T12:00:06;38.53;;;6.25;;
37851;SDS011;23691;52.486;4.650;2024-01-25T12:02:35;35.15;;;6.13;;
37851;SDS011;23691;52.486;4.650;2024-01-25T12:05:02;31.95;;;6.22;;
37851;SDS011;23691;52.486;4.650;2024-01-25T12:07:30;34.80;;;5.97;;
37851;SDS011;23691;52.486;4.650;2024-01-25T12:09:59;37.40;;;6.65;;
37851;SDS011;23691;52.486;4.650;2024-01-25T12:12:27;27.10;;;5.50;;
37851;SDS011;23691;52.486;4.650;2024-01-25T12:14:56;37.17;;;6.32;;
37851;SDS011;23691;52.486;4.650;2024-01-25T12:17:23;38.78;;;5.90;;
37851;SDS011;23691;52.486;4.650;2024-01-25T12:19:48;34.88;;;6.13;;
37851;SDS011;23691;52.486;4.650;2024-01-25T12:22:19;33.60;;;6.45;;
37851;SDS011;23691;52.486;4.650;2024-01-25T12:24:45;40.05;;;6.75;;
37851;SDS011;23691;52.486;4.650;2024-01-25T12:27:11;33.20;;;6.20;;
37851;SDS011;23691;52.486;4.650;2024-01-25T12:29:36;32.50;;;5.72;;
37851;SDS011;23691;52.486;4.650;2024-01-25T12:32:02;39.50;;;7.03;;
37851;SDS011;23691;52.486;4.650;2024-01-25T12:34:27;36.40;;;6.45;;
37851;SDS011;23691;52.486;4.650;2024-01-25T12:36:53;38.00;;;6.72;;
37851;SDS011;23691;52.486;4.650;2024-01-25T12:39:19;33.10;;;6.32;;
37851;SDS011;23691;52.486;4.650;2024-01-25T12:41:45;30.70;;;5.75;;
37851;SDS011;23691;52.486;4.650;2024-01-25T12:44:10;31.15;;;6.05;;
37851;SDS011;23691;52.486;4.650;2024-01-25T12:46:35;29.13;;;6.28;;
37851;SDS011;23691;52.486;4.650;2024-01-25T12:49:01;39.67;;;6.72;;
37851;SDS011;23691;52.486;4.650;2024-01-25T12:51:26;35.03;;;5.82;;
37851;SDS011;23691;52.486;4.650;2024-01-25T12:53:51;37.15;;;6.75;;
37851;SDS011;23691;52.486;4.650;2024-01-25T12:56:17;40.00;;;6.35;;
37851;SDS011;23691;52.486;4.650;2024-01-25T12:58:42;34.17;;;5.88;;
37851;SDS011;23691;52.486;4.650;2024-01-25T13:01:09;31.00;;;5.78;;
37851;SDS011;23691;52.486;4.650;2024-01-25T13:03:34;35.08;;;6.05;;
37851;SDS011;23691;52.486;4.650;2024-01-25T13:05:59;34.10;;;5.97;;
37851;SDS011;23691;52.486;4.650;2024-01-25T13:10:53;30.90;;;5.90;;
37851;SDS011;23691;52.486;4.650;2024-01-25T13:13:18;32.20;;;6.25;;
37851;SDS011;23691;52.486;4.650;2024-01-25T13:15:44;36.20;;;6.80;;
37851;SDS011;23691;52.486;4.650;2024-01-25T13:18:09;31.33;;;5.57;;
37851;SDS011;23691;52.486;4.650;2024-01-25T13:20:34;32.65;;;5.45;;
37851;SDS011;23691;52.486;4.650;2024-01-25T13:23:00;39.05;;;6.38;;
37851;SDS011;23691;52.486;4.650;2024-01-25T13:25:25;39.15;;;5.90;;
37851;SDS011;23691;52.486;4.650;2024-01-25T13:27:51;31.38;;;5.80;;
37851;SDS011;23691;52.486;4.650;2024-01-25T13:30:16;34.67;;;6.50;;
37851;SDS011;23691;52.486;4.650;2024-01-25T13:32:42;35.15;;;6.10;;
37851;SDS011;23691;52.486;4.650;2024-01-25T13:35:08;42.38;;;6.30;;
37851;SDS011;23691;52.486;4.650;2024-01-25T13:37:33;36.58;;;6.03;;
37851;SDS011;23691;52.486;4.650;2024-01-25T13:39:59;36.33;;;6.43;;
37851;SDS011;23691;52.486;4.650;2024-01-25T13:42:24;35.67;;;6.32;;
37851;SDS011;23691;52.486;4.650;2024-01-25T13:44:49;42.53;;;7.32;;
37851;SDS011;23691;52.486;4.650;2024-01-25T13:47:15;38.63;;;7.70;;
37851;SDS011;23691;52.486;4.650;2024-01-25T13:49:40;33.13;;;6.15;;
37851;SDS011;23691;52.486;4.650;2024-01-25T13:52:05;37.45;;;7.22;;
37851;SDS011;23691;52.486;4.650;2024-01-25T13:54:31;35.55;;;6.68;;
37851;SDS011;23691;52.486;4.650;2024-01-25T13:56:56;36.35;;;6.80;;
37851;SDS011;23691;52.486;4.650;2024-01-25T13:59:21;35.92;;;6.72;;
37851;SDS011;23691;52.486;4.650;2024-01-25T14:01:47;38.45;;;6.57;;
37851;SDS011;23691;52.486;4.650;2024-01-25T14:04:12;37.30;;;7.10;;
37851;SDS011;23691;52.486;4.650;2024-01-25T14:06:38;38.42;;;7.72;;
37851;SDS011;23691;52.486;4.650;2024-01-25T14:09:04;41.08;;;6.50;;
37851;SDS011;23691;52.486;4.650;2024-01-25T14:11:31;42.28;;;6.97;;
37851;SDS011;23691;52.486;4.650;2024-01-25T14:13:56;37.90;;;6.97;;
37851;SDS011;23691;52.486;4.650;2024-01-25T14:16:21;36.17;;;6.70;;
37851;SDS011;23691;52.486;4.650;2024-01-25T14:18:47;36.85;;;7.10;;
37851;SDS011;23691;52.486;4.650;2024-01-25T14:21:12;44.47;;;7.35;;
37851;SDS011;23691;52.486;4.650;2024-01-25T14:23:37;42.63;;;7.97;;
37851;SDS011;23691;52.486;4.650;2024-01-25T14:26:03;79.75;;;25.77;;
37851;SDS011;23691;52.486;4.650;2024-01-25T14:28:28;77.20;;;22.10;;
37851;SDS011;23691;52.486;4.650;2024-01-25T14:30:53;120.70;;;34.53;;
37851;SDS011;23691;52.486;4.650;2024-01-25T14:33:19;134.10;;;42.97;;
37851;SDS011;23691;52.486;4.650;2024-01-25T14:35:44;73.90;;;24.25;;
37851;SDS011;23691;52.486;4.650;2024-01-25T14:38:09;75.07;;;22.38;;